Augusta, NJ

12:45 PM EST on January 26, 2015 (GMT -0500)
Augusta, NJ | Change Station
CLOSE
Current Station
Personal Weather Station
Location: Frankford, NJ
Elevation: 548 ft
Nearby Weather Stations
Active Advisory: Winter Storm Warning Active Notice: Public Information Statement

Elev 548 ft 41.15 °N, 74.68 °W | Updated 16 seconds ago

Snow
Snow
16.2 °F
Feels Like 16 °F
N
2.7
Wind Variable Wind from North
Gusts 4.9 mph

Today
High -- | Low -- °F
--% Chance of Precip.
Yesterday
High -- | Low -- °F
Precip. -- in
7:15 AM 5:07 PM
Waxing Crescent, 45% visible
Pressure 29.91 in
Visibility 1.8 miles
Clouds Mostly Cloudy 2600 ft
Overcast 3200 ft
Windchill 16 °F
Dew Point 8 °F
Humidity 68%
Rainfall 0.00 in
Snow Depth Not available.
UV 2.0 out of 12
Pollen .10 out of 12
Air Quality Not available.
Flu Activity Not available.
SPECI KFWN 261730Z AUTO 05013G22KT 1 3/4SM -SN BKN026 OVC032 M09/M13 A2991 RMK AO2 P0000 T10891128

More Conditions Fewer Conditions

Pressure 29.91 in
Visibility 1.8 miles
Clouds Mostly Cloudy 2600 ft
Overcast 3200 ft
Windchill 16 °F
Dew Point 8 °F
Humidity 68%
Rainfall 0.00 in
Snow Depth Not available.
UV 2.0 out of 12
Pollen .10 out of 12
Air Quality Not available.
Flu Activity Not available.
SPECI KFWN 261730Z AUTO 05013G22KT 1 3/4SM -SN BKN026 OVC032 M09/M13 A2991 RMK AO2 P0000 T10891128

More Conditions Fewer Conditions

10-Day Weather Forecast

Almanac

Astronomy

Jan. 26, 2015 Rise Set
Actual Time
Civil Twilight
Nautical Twilight
Astronomical Twilight
Moon
Length of Visible Light
Length of Day
Tomorrow will be .
, % of the Moon is Illuminated

Today's Extremes

State Highs State Lows

Community

WunderPhotos

Upload Photos

1,790,301 photos uploaded!

WunderBlogs® & News

Nearby

Air Quality

  Air Quality AQ Index Pollutant
Not available.

Snow Depth

Station Depth Elevation

Earthquake Activity

City Distance Mag. Time & Date
Minimum magnitude displayed is 2.5.

Coastal Water Temperatures

Place Temperature

Nearby Weather Stations